Time;durP1;ratioP1;P1;durP2;ratioP2;P2;SDS_P1;SDS_P2;PMS_P1;PMS_P2;Temp;Humidity;BMP_temperature;BMP_pressure;BME280_temperature;BME280_humidity;BME280_pressure;Samples;Min_cycle;Max_cycle;Signal;HPM_P1;HPM_P2
2021/05/12 00:02:09;;;;;;;1140.82;999.90;;;12.90;99.90;;;;;;5055499;28;20445;-66
2021/05/12 00:04:38;;;;;;;1132.25;999.90;;;12.80;99.90;;;;;;5056642;28;20496;-65
2021/05/12 00:07:06;;;;;;;1146.43;999.90;;;12.90;99.90;;;;;;5056558;28;20497;-65
2021/05/12 00:09:34;;;;;;;1146.28;999.90;;;12.90;99.90;;;;;;5057296;28;20405;-62
2021/05/12 00:12:04;;;;;;;1151.65;999.90;;;12.80;99.90;;;;;;5057193;28;20742;-65
2021/05/12 00:14:32;;;;;;;1129.40;999.90;;;12.80;99.90;;;;;;5057174;28;20506;-65
2021/05/12 00:17:00;;;;;;;1131.70;999.90;;;12.80;99.90;;;;;;5055923;28;20440;-62
2021/05/12 00:19:30;;;;;;;1123.90;999.90;;;12.80;99.90;;;;;;5055427;28;20465;-64
2021/05/12 00:22:11;;;;;;;1142.00;999.90;;;12.70;99.90;;;;;;5056402;28;20401;-68
2021/05/12 00:24:40;;;;;;;1136.05;999.90;;;12.70;99.90;;;;;;5055983;28;20952;-66
2021/05/12 00:27:10;;;;;;;1133.63;999.90;;;12.80;99.90;;;;;;5055041;28;20409;-65
2021/05/12 00:29:38;;;;;;;1126.97;999.90;;;12.80;99.90;;;;;;5055533;28;20503;-64
2021/05/12 00:32:06;;;;;;;1151.18;999.90;;;12.80;99.90;;;;;;5055772;28;20808;-63
2021/05/12 00:34:35;;;;;;;1127.53;999.90;;;12.80;99.90;;;;;;5054628;28;20417;-66
2021/05/12 00:37:03;;;;;;;1134.10;999.90;;;12.80;99.90;;;;;;5054361;28;20440;-63
2021/05/12 00:39:31;;;;;;;1124.68;999.90;;;12.80;99.90;;;;;;5056014;28;20423;-63
2021/05/12 00:42:00;;;;;;;1125.68;999.90;;;12.80;99.90;;;;;;5056229;28;20406;-64
2021/05/12 00:44:29;;;;;;;1125.50;999.90;;;12.70;99.90;;;;;;5056054;28;20414;-64
2021/05/12 00:47:01;;;;;;;1131.18;999.90;;;12.80;99.90;;;;;;5054569;28;20420;-64
2021/05/12 00:49:53;;;;;;;1126.53;999.90;;;12.80;99.90;;;;;;5055266;28;20504;-64
2021/05/12 00:52:22;;;;;;;1122.47;999.90;;;12.80;99.90;;;;;;5055981;28;20413;-64
2021/05/12 00:54:52;;;;;;;1142.30;999.90;;;12.70;99.90;;;;;;5055589;28;20417;-66
2021/05/12 00:57:21;;;;;;;1117.22;999.90;;;12.60;99.90;;;;;;5055353;28;20429;-64
2021/05/12 00:59:52;;;;;;;1120.45;999.90;;;12.70;99.90;;;;;;5054888;28;20873;-64
2021/05/12 01:02:22;;;;;;;1141.93;999.90;;;12.70;99.90;;;;;;5054511;28;20486;-64
2021/05/12 01:04:50;;;;;;;1123.97;999.90;;;12.70;99.90;;;;;;5053924;28;20424;-65
2021/05/12 01:07:18;;;;;;;1116.45;999.90;;;12.70;99.90;;;;;;5055042;28;20413;-67
2021/05/12 01:09:46;;;;;;;1102.80;999.90;;;12.80;99.90;;;;;;5054804;28;20401;-64
2021/05/12 01:12:15;;;;;;;1115.47;999.90;;;12.70;99.90;;;;;;5055111;28;20415;-63
2021/05/12 01:14:43;;;;;;;1098.87;999.90;;;12.70;99.90;;;;;;5054708;28;20417;-64
2021/05/12 01:17:12;;;;;;;1103.90;999.90;;;12.70;99.90;;;;;;5053932;28;20516;-64
2021/05/12 01:19:40;;;;;;;1093.05;999.90;;;12.60;99.90;;;;;;5054419;28;20445;-64
2021/05/12 01:22:09;;;;;;;1106.25;999.90;;;12.60;99.90;;;;;;5055290;28;20433;-64
2021/05/12 01:24:37;;;;;;;1103.45;999.90;;;12.60;99.90;;;;;;5054987;28;20454;-64
2021/05/12 01:27:08;;;;;;;1090.78;999.90;;;12.60;99.90;;;;;;5055013;28;20463;-63
2021/05/12 01:29:36;;;;;;;1109.03;999.90;;;12.60;99.90;;;;;;5054350;28;20405;-63
2021/05/12 01:32:06;;;;;;;1114.82;999.90;;;12.60;99.90;;;;;;5053758;28;20413;-64
2021/05/12 01:34:34;;;;;;;1062.93;981.17;;;12.50;99.90;;;;;;5052180;28;20452;-66
2021/05/12 01:37:02;;;;;;;1086.70;999.90;;;12.50;99.90;;;;;;5052787;28;20417;-64
2021/05/12 01:39:31;;;;;;;1066.50;984.38;;;12.50;99.90;;;;;;5053482;28;20496;-64
2021/05/12 01:41:59;;;;;;;1078.32;996.03;;;12.50;99.90;;;;;;5051989;28;20700;-67
2021/05/12 01:44:28;;;;;;;1071.22;989.13;;;12.50;99.90;;;;;;5053477;28;20488;-64
2021/05/12 01:46:56;;;;;;;1063.45;981.55;;;12.50;99.90;;;;;;5052689;28;20749;-64
2021/05/12 01:49:29;;;;;;;1066.82;984.63;;;12.40;99.90;;;;;;5053125;28;20413;-65
2021/05/12 01:52:00;;;;;;;1072.10;990.20;;;12.40;99.90;;;;;;5053127;28;20409;-69
2021/05/12 01:54:28;;;;;;;1073.40;991.10;;;12.50;99.90;;;;;;5052761;28;20425;-63
2021/05/12 01:56:56;;;;;;;1078.47;996.30;;;12.40;99.90;;;;;;5052578;28;20475;-65
2021/05/12 01:59:25;;;;;;;1103.93;999.90;;;12.40;99.90;;;;;;5052799;28;20500;-64
2021/05/12 02:01:53;;;;;;;1066.22;984.25;;;12.40;99.90;;;;;;5052211;28;20409;-64
2021/05/12 02:04:22;;;;;;;1064.28;982.28;;;12.40;99.90;;;;;;5051483;28;20409;-64
2021/05/12 02:06:50;;;;;;;1072.57;990.75;;;12.40;99.90;;;;;;5053072;28;20413;-65
2021/05/12 02:09:18;;;;;;;1057.38;975.30;;;12.40;99.90;;;;;;5052595;28;20414;-64
2021/05/12 02:11:47;;;;;;;1071.90;989.90;;;12.30;99.90;;;;;;5051518;28;20397;-64
2021/05/12 02:14:15;;;;;;;1065.90;984.20;;;12.30;99.90;;;;;;5052515;28;20939;-64
2021/05/12 02:16:43;;;;;;;1071.60;989.33;;;12.30;99.90;;;;;;5051568;28;20424;-64
2021/05/12 02:19:12;;;;;;;1074.55;992.13;;;12.30;99.90;;;;;;5052481;28;20904;-64
2021/05/12 02:21:40;;;;;;;1061.78;980.05;;;12.30;99.90;;;;;;5053194;28;20805;-65
2021/05/12 02:24:09;;;;;;;1057.55;975.75;;;12.30;99.90;;;;;;5056665;28;20915;-65
2021/05/12 02:26:37;;;;;;;1053.20;972.00;;;12.30;99.90;;;;;;5057313;28;20501;-65
2021/05/12 02:29:06;;;;;;;1054.33;972.93;;;12.40;99.90;;;;;;5053005;28;20897;-68
2021/05/12 02:31:34;;;;;;;1068.22;986.22;;;12.30;99.90;;;;;;5051390;28;20420;-65
2021/05/12 02:36:55;;;;;;;1060.27;978.60;;;12.30;99.90;;;;;;5052637;28;20428;-65
2021/05/12 02:39:27;;;;;;;1088.60;999.90;;;12.30;99.90;;;;;;5052449;28;20406;-64
2021/05/12 02:41:55;;;;;;;1062.03;980.30;;;12.30;99.90;;;;;;5052423;28;20413;-65
2021/05/12 02:44:26;;;;;;;1070.75;988.72;;;12.30;99.90;;;;;;5052776;28;20417;-65
2021/05/12 02:46:55;;;;;;;1052.88;971.45;;;12.30;99.90;;;;;;5051385;28;20420;-64
2021/05/12 02:49:23;;;;;;;1075.45;993.28;;;12.30;99.90;;;;;;5051339;28;20437;-65
2021/05/12 02:51:51;;;;;;;1066.10;984.40;;;12.30;99.90;;;;;;5052772;28;20463;-68
2021/05/12 02:54:19;;;;;;;1070.50;988.53;;;12.30;99.90;;;;;;5051289;28;20439;-65
2021/05/12 02:56:47;;;;;;;1070.38;988.13;;;12.20;99.90;;;;;;5052378;28;20429;-65
2021/05/12 02:59:16;;;;;;;1072.95;990.75;;;12.30;99.90;;;;;;5051162;28;20441;-65
2021/05/12 03:01:44;;;;;;;1055.63;974.28;;;12.30;99.90;;;;;;5051760;28;20405;-64
2021/05/12 03:04:14;;;;;;;1064.88;983.08;;;12.20;99.90;;;;;;5052673;28;20532;-66
2021/05/12 03:06:42;;;;;;;1085.97;999.90;;;12.30;99.90;;;;;;5052577;28;20426;-67
2021/05/12 03:09:14;;;;;;;1079.57;997.28;;;12.30;99.90;;;;;;5052322;28;20952;-64
2021/05/12 03:11:42;;;;;;;1097.25;999.90;;;12.20;99.90;;;;;;5052784;28;20402;-64
2021/05/12 03:14:11;;;;;;;1069.72;987.83;;;12.30;99.90;;;;;;5052715;28;20405;-67
2021/05/12 03:16:38;;;;;;;1066.38;984.33;;;12.30;99.90;;;;;;5051846;28;20410;-65
2021/05/12 03:19:13;;;;;;;1058.32;976.83;;;12.40;99.90;;;;;;5053699;28;20466;-65
2021/05/12 03:21:41;;;;;;;1066.82;985.05;;;12.40;99.90;;;;;;5053078;28;20923;-63
2021/05/12 03:24:09;;;;;;;1072.22;990.13;;;12.40;99.90;;;;;;5052334;28;20769;-64
2021/05/12 03:26:37;;;;;;;1053.78;972.50;;;12.40;99.90;;;;;;5051204;28;20409;-64
2021/05/12 03:29:05;;;;;;;1050.05;968.88;;;12.40;99.90;;;;;;5052185;28;20471;-63
2021/05/12 03:31:34;;;;;;;1064.63;982.63;;;12.30;99.90;;;;;;5051356;28;20477;-64
2021/05/12 03:34:27;;;;;;;1063.18;981.63;;;12.40;99.90;;;;;;5052419;28;20417;-66
2021/05/12 03:36:59;;;;;;;1061.72;980.13;;;12.40;99.90;;;;;;5052242;28;20419;-64
2021/05/12 03:39:28;;;;;;;1053.30;972.13;;;12.40;99.90;;;;;;5051730;28;20413;-64
2021/05/12 03:41:56;;;;;;;1082.38;999.90;;;12.40;99.90;;;;;;5052408;28;20431;-65
2021/05/12 03:44:26;;;;;;;1071.45;989.55;;;12.40;99.90;;;;;;5050667;28;20440;-63
2021/05/12 03:46:54;;;;;;;1076.70;994.47;;;12.30;99.90;;;;;;5050974;28;20504;-65
2021/05/12 03:49:22;;;;;;;1112.80;999.90;;;12.40;99.90;;;;;;5052802;28;20809;-65
2021/05/12 03:51:51;;;;;;;1088.47;999.90;;;12.40;99.90;;;;;;5052805;28;20529;-65
2021/05/12 03:54:22;;;;;;;1082.57;999.50;;;12.40;99.90;;;;;;5052384;28;20459;-65
2021/05/12 03:56:50;;;;;;;1085.45;999.90;;;12.40;99.90;;;;;;5052573;28;20453;-64
2021/05/12 03:59:19;;;;;;;1082.65;999.88;;;12.40;99.90;;;;;;5052289;28;20412;-65
2021/05/12 04:01:47;;;;;;;1080.03;997.63;;;12.40;99.90;;;;;;5052720;28;20893;-64
2021/05/12 04:04:16;;;;;;;1094.38;999.90;;;12.40;99.90;;;;;;5054873;28;20432;-64
2021/05/12 04:06:48;;;;;;;1091.80;999.90;;;12.40;99.90;;;;;;5056483;28;20487;-64
2021/05/12 04:09:18;;;;;;;1093.83;999.90;;;12.40;99.90;;;;;;5055970;28;20444;-65
2021/05/12 04:11:47;;;;;;;;;;;12.50;99.90;;;;;;5057237;28;20415;-64
2021/05/12 04:14:15;;;;;;;;;;;12.40;99.90;;;;;;5054771;28;20409;-64
2021/05/12 04:16:44;;;;;;;;;;;12.40;99.90;;;;;;5052854;28;25169;-63
2021/05/12 04:19:11;;;;;;;1034.57;953.40;;;12.40;99.90;;;;;;5055945;28;20424;-65
2021/05/12 04:21:40;;;;;;;1077.23;992.47;;;12.40;99.90;;;;;;5055430;28;20916;-70
2021/05/12 04:24:08;;;;;;;1083.25;999.65;;;12.40;99.90;;;;;;5055563;28;20412;-65
2021/05/12 04:26:37;;;;;;;1077.80;995.30;;;12.50;99.90;;;;;;5055106;28;20404;-69
2021/05/12 04:29:06;;;;;;;1063.35;981.13;;;12.40;99.90;;;;;;5055508;28;20446;-65
2021/05/12 04:31:35;;;;;;;1079.65;996.75;;;12.50;99.90;;;;;;5054343;28;20421;-64
2021/05/12 04:34:03;;;;;;;1068.37;985.97;;;12.60;99.90;;;;;;5055312;28;20475;-65
2021/05/12 04:36:31;;;;;;;1071.93;989.42;;;12.50;99.90;;;;;;5055730;28;20421;-65
2021/05/12 04:38:59;;;;;;;1045.80;963.93;;;12.40;99.90;;;;;;5056348;28;20413;-65
2021/05/12 04:41:27;;;;;;;1069.28;986.72;;;12.40;99.90;;;;;;5056307;28;20405;-64
2021/05/12 04:43:56;;;;;;;1047.93;966.13;;;12.40;99.90;;;;;;5055238;28;20593;-64
2021/05/12 04:46:25;;;;;;;1076.03;992.83;;;12.40;99.90;;;;;;5055924;28;20413;-67
2021/05/12 04:48:54;;;;;;;1078.80;995.10;;;12.40;99.90;;;;;;5056273;28;20437;-67
2021/05/12 04:51:22;;;;;;;1072.07;988.35;;;12.40;99.90;;;;;;5056883;28;20406;-65
2021/05/12 04:53:50;;;;;;;1059.03;975.47;;;12.40;99.90;;;;;;5056763;28;20741;-64
2021/05/12 04:56:19;;;;;;;1090.70;999.90;;;12.50;99.90;;;;;;5056225;28;20429;-67
2021/05/12 04:58:47;;;;;;;1064.70;980.65;;;12.50;99.90;;;;;;5058377;28;20899;-65
2021/05/12 05:01:16;;;;;;;1076.13;990.13;;;12.50;99.90;;;;;;5055671;28;20484;-65
2021/05/12 05:03:45;;;;;;;1102.80;999.90;;;12.50;99.90;;;;;;5056591;28;20497;-65
2021/05/12 05:06:13;;;;;;;1096.90;998.97;;;12.60;99.90;;;;;;5056350;22;20448;-66
2021/05/12 05:08:41;;;;;;;1132.78;999.90;;;12.60;99.90;;;;;;5014838;28;20420;-66
2021/05/12 05:11:14;;;;;;;1094.78;996.15;;;12.60;99.90;;;;;;5013393;28;20409;-67
2021/05/12 05:13:42;;;;;;;1118.57;999.90;;;12.50;99.90;;;;;;5014623;28;20401;-67
2021/05/12 05:16:11;;;;;;;767.88;605.05;;;12.50;99.90;;;;;;5027452;28;20427;-68
2021/05/12 05:18:40;;;;;;;737.80;645.90;;;12.60;99.90;;;;;;5052453;28;20413;-67
2021/05/12 05:21:10;;;;;;;771.38;632.63;;;12.50;99.90;;;;;;5054291;28;20412;-65
2021/05/12 05:23:38;;;;;;;757.70;644.50;;;12.50;99.90;;;;;;5052627;28;20433;-68
2021/05/12 05:26:07;;;;;;;775.05;618.65;;;12.50;99.90;;;;;;5053695;28;20996;-66
2021/05/12 05:28:35;;;;;;;754.30;634.60;;;12.50;99.90;;;;;;5052246;28;20471;-66
2021/05/12 05:31:03;;;;;;;;;;;12.50;99.90;;;;;;5051238;28;20441;-67
2021/05/12 05:33:50;;;;;;;;;;;12.40;99.90;;;;;;5053916;28;25090;-67
2021/05/12 05:36:38;;;;;;;;;;;12.50;99.90;;;;;;5051604;28;20421;-66
2021/05/12 05:39:24;;;;;;;;;;;12.40;99.90;;;;;;5051282;28;25129;-66
2021/05/12 05:42:11;;;;;;;;;;;12.40;99.90;;;;;;5051504;28;20410;-66
2021/05/12 05:44:58;;;;;;;;;;;12.40;99.90;;;;;;5049555;28;20730;-66
2021/05/12 05:47:45;;;;;;;;;;;12.40;99.90;;;;;;5049521;28;25108;-66
2021/05/12 05:50:33;;;;;;;;;;;12.50;99.90;;;;;;5049895;28;25104;-66
2021/05/12 05:53:19;;;;;;;;;;;12.50;99.90;;;;;;5048734;28;25057;-66
2021/05/12 05:56:05;;;;;;;;;;;12.50;99.90;;;;;;5050260;28;25092;-69
2021/05/12 05:58:52;;;;;;;751.70;636.10;;;12.50;99.90;;;;;;5052238;28;20475;-66
2021/05/12 06:01:39;;;;;;;745.40;608.00;;;12.50;99.90;;;;;;5051169;28;25116;-67
2021/05/12 06:04:07;;;;;;;1032.45;943.58;;;12.60;99.90;;;;;;5052732;28;25113;-67
2021/05/12 06:07:11;;;;;;;1127.22;999.90;;;12.50;99.90;;;;;;5018367;28;20508;-67
2021/05/12 06:09:58;;;;;;;759.90;631.70;;;12.40;99.90;;;;;;5052261;28;20907;-67
2021/05/12 06:12:45;;;;;;;755.00;632.20;;;12.40;99.90;;;;;;5052743;28;20863;-66
2021/05/12 06:15:40;;;;;;;757.75;576.70;;;12.50;99.90;;;;;;5051603;28;20407;-66
2021/05/12 06:18:27;;;;;;;764.08;578.92;;;12.50;99.90;;;;;;5052347;28;20413;-67
2021/05/12 06:21:18;;;;;;;766.75;594.90;;;12.50;99.90;;;;;;5024043;28;20427;-67
2021/05/12 06:24:06;;;;;;;778.67;614.78;;;12.40;99.90;;;;;;5051942;28;20411;-67
2021/05/12 06:26:55;;;;;;;744.70;616.50;;;12.50;99.90;;;;;;5010359;28;20797;-66
2021/05/12 06:29:42;;;;;;;;;;;12.50;99.90;;;;;;5052063;28;20400;-67
2021/05/12 06:32:43;;;;;;;744.55;597.65;;;12.50;99.90;;;;;;5018555;28;20474;-67
2021/05/12 06:35:30;;;;;;;756.85;559.90;;;12.40;99.90;;;;;;5051877;28;20786;-66
2021/05/12 06:38:18;;;;;;;742.40;562.70;;;12.40;99.90;;;;;;5050744;28;20475;-66
2021/05/12 06:40:57;;;;;;;739.10;603.10;;;12.40;99.90;;;;;;5051667;28;20886;-67
2021/05/12 06:43:26;;;;;;;;;;;12.40;99.90;;;;;;5052067;28;20417;-66
2021/05/12 06:45:58;;;;;;;;;;;12.40;99.90;;;;;;5048765;28;20404;-66
2021/05/12 06:48:27;;;;;;;;;;;12.40;99.90;;;;;;5050219;28;25110;-69
2021/05/12 06:50:55;;;;;;;;;;;12.30;99.90;;;;;;5050076;28;20937;-66
2021/05/12 06:53:26;;;;;;;;;;;12.40;99.90;;;;;;5048972;28;25116;-66
2021/05/12 06:55:54;;;;;;;;;;;12.40;99.90;;;;;;5047633;28;20491;-67
2021/05/12 06:58:23;;;;;;;;;;;12.30;99.90;;;;;;5048915;28;20222;-67
2021/05/12 07:00:51;;;;;;;;;;;12.30;99.90;;;;;;5048264;28;25063;-66
2021/05/12 07:03:21;;;;;;;;;;;12.30;99.90;;;;;;5052611;28;25072;-67
2021/05/12 07:05:49;;;;;;;;;;;12.30;99.90;;;;;;5052780;28;25128;-66
2021/05/12 07:08:17;;;;;;;;;;;12.30;99.90;;;;;;5034911;28;25058;-66
2021/05/12 07:10:45;;;;;;;;;;;12.40;99.90;;;;;;5053106;28;25076;-68
2021/05/12 07:13:13;;;;;;;;;;;12.40;99.90;;;;;;5053304;28;25062;-69
2021/05/12 07:15:42;;;;;;;;;;;12.40;99.90;;;;;;5050657;28;25116;-66
2021/05/12 07:18:11;;;;;;;903.23;818.40;;;12.40;99.90;;;;;;5052316;28;20887;-66
2021/05/12 07:20:38;;;;;;;;;;;12.30;99.90;;;;;;5033604;28;20925;-67
2021/05/12 07:23:07;;;;;;;;;;;12.40;99.90;;;;;;5052426;28;25055;-67
2021/05/12 07:25:35;;;;;;;;;;;12.50;99.90;;;;;;5051611;28;25069;-67
2021/05/12 07:28:04;;;;;;;;;;;12.50;99.90;;;;;;5052480;28;25105;-67
2021/05/12 07:30:32;;;;;;;1044.40;960.40;;;12.50;99.90;;;;;;5051377;28;20416;-67
2021/05/12 07:33:02;;;;;;;1029.10;946.22;;;12.50;99.90;;;;;;5052590;28;20812;-67
2021/05/12 07:35:30;;;;;;;1020.53;940.23;;;12.50;99.90;;;;;;5052645;28;20413;-66
2021/05/12 07:37:58;;;;;;;1029.13;946.95;;;12.50;99.90;;;;;;5054547;28;21028;-66
2021/05/12 07:40:31;;;;;;;1015.83;935.03;;;12.50;99.90;;;;;;5054813;28;20781;-66
2021/05/12 07:43:00;;;;;;;1015.85;935.58;;;12.40;99.90;;;;;;5055638;28;20496;-66
2021/05/12 07:45:28;;;;;;;1033.65;951.13;;;12.50;99.90;;;;;;5054907;28;20757;-66
2021/05/12 07:48:07;;;;;;;1042.90;959.00;;;12.40;99.90;;;;;;5054416;28;20426;-66
2021/05/12 07:51:02;;;;;;;1051.67;964.93;;;12.40;99.90;;;;;;5054074;28;20504;-69
2021/05/12 07:53:30;;;;;;;1046.57;960.47;;;12.40;99.90;;;;;;5055582;28;20420;-67
2021/05/12 07:55:58;;;;;;;1045.15;961.35;;;12.40;99.90;;;;;;5055217;28;20633;-67
2021/05/12 07:58:26;;;;;;;1027.55;944.30;;;12.50;99.90;;;;;;5037136;28;20544;-66
2021/05/12 08:00:54;;;;;;;1052.73;968.87;;;12.60;99.90;;;;;;5053826;28;20448;-66
2021/05/12 08:06:41;;;;;;;1060.88;976.97;;;12.70;99.90;;;;;;5054925;28;20421;-67
2021/05/12 08:09:34;;;;;;;1049.13;965.33;;;12.60;99.90;;;;;;5053167;28;20412;-67
2021/05/12 08:12:03;;;;;;;1034.72;951.53;;;12.60;99.90;;;;;;5053679;28;20408;-68
2021/05/12 08:14:31;;;;;;;1068.28;981.85;;;12.60;99.90;;;;;;5054999;28;20444;-67
2021/05/12 08:16:59;;;;;;;1056.35;965.45;;;12.60;99.90;;;;;;5052661;28;20515;-67
2021/05/12 08:19:28;;;;;;;1065.43;973.58;;;12.50;99.90;;;;;;5055146;28;20401;-68
2021/05/12 08:22:03;;;;;;;1075.95;978.65;;;12.70;99.90;;;;;;5054665;28;20437;-67
2021/05/12 08:24:31;;;;;;;1108.00;999.90;;;12.70;99.90;;;;;;5053792;28;20480;-66
2021/05/12 08:27:01;;;;;;;1095.82;996.83;;;12.60;99.90;;;;;;5053481;28;20413;-66
2021/05/12 08:29:30;;;;;;;1120.07;999.90;;;12.60;99.90;;;;;;5053720;28;20770;-66
2021/05/12 08:31:58;;;;;;;1061.85;967.08;;;12.70;99.90;;;;;;5052369;28;20417;-66
2021/05/12 08:34:29;;;;;;;1058.97;963.53;;;12.70;99.90;;;;;;5054908;28;20462;-70
2021/05/12 08:36:56;;;;;;;1120.10;999.90;;;12.60;99.90;;;;;;5055024;28;20428;-66
2021/05/12 08:39:26;;;;;;;1038.57;954.08;;;12.70;99.90;;;;;;5053459;28;20459;-66
2021/05/12 08:41:54;;;;;;;1064.10;979.67;;;12.70;99.90;;;;;;5055493;28;20409;-66
2021/05/12 08:44:31;;;;;;;1065.63;970.70;;;12.80;99.90;;;;;;5053121;28;20908;-67
2021/05/12 08:47:00;;;;;;;1095.78;999.90;;;12.80;99.90;;;;;;5053413;28;20432;-67
2021/05/12 08:49:33;;;;;;;1068.00;981.17;;;12.70;99.90;;;;;;5054495;28;20417;-69
2021/05/12 08:52:03;;;;;;;1089.93;999.90;;;12.70;99.90;;;;;;5053434;28;20405;-67
2021/05/12 08:54:31;;;;;;;1079.18;991.80;;;12.70;99.90;;;;;;5053480;28;20433;-66
2021/05/12 09:00:31;;;;;;;1045.05;961.45;;;12.70;99.90;;;;;;5052107;28;20505;-66
2021/05/12 09:03:00;;;;;;;1062.43;976.95;;;12.80;99.90;;;;;;5053620;28;20402;-67
2021/05/12 09:05:31;;;;;;;1139.75;999.90;;;12.80;99.90;;;;;;5054987;28;20480;-66
2021/05/12 09:07:59;;;;;;;1064.30;970.90;;;12.60;99.90;;;;;;5056494;28;20421;-67
2021/05/12 09:10:28;;;;;;;764.15;546.75;;;12.80;99.90;;;;;;5060708;28;20444;-66
2021/05/12 09:13:00;;;;;;;776.15;605.15;;;13.00;99.90;;;;;;5062603;28;20519;-66
2021/05/12 09:15:30;;;;;;;783.20;653.60;;;13.20;99.90;;;;;;5057293;28;20765;-69
2021/05/12 09:18:02;;;;;;;762.80;679.10;;;13.20;99.90;;;;;;5054109;28;20474;-67
2021/05/12 09:20:39;;;;;;;780.60;698.55;;;13.30;99.90;;;;;;5053479;28;25098;-67
2021/05/12 09:23:10;;;;;;;750.70;626.35;;;13.30;99.90;;;;;;5051962;28;20513;-66
2021/05/12 09:28:35;;;;;;;760.45;623.35;;;13.30;99.90;;;;;;5053314;28;20410;-67
2021/05/12 09:31:12;;;;;;;756.47;623.80;;;13.00;99.90;;;;;;5051164;28;20751;-67
2021/05/12 09:33:43;;;;;;;753.80;640.05;;;13.00;99.90;;;;;;5051875;28;20407;-66
2021/05/12 09:36:26;;;;;;;765.47;619.05;;;13.10;99.90;;;;;;5052160;28;20489;-69
2021/05/12 09:38:55;;;;;;;763.30;612.70;;;13.20;99.90;;;;;;5052400;28;20429;-66
2021/05/12 09:41:31;;;;;;;757.70;644.00;;;13.20;99.90;;;;;;5053748;28;20403;-66
2021/05/12 09:44:01;;;;;;;1020.35;938.72;;;13.50;99.90;;;;;;5051750;28;20413;-67
2021/05/12 09:46:34;;;;;;;1055.32;973.35;;;13.20;99.90;;;;;;5050900;28;20500;-69
2021/05/12 09:49:17;;;;;;;1073.30;990.58;;;13.30;99.90;;;;;;5052152;28;20401;-67
2021/05/12 09:51:48;;;;;;;1066.95;984.92;;;13.30;99.90;;;;;;5035463;28;20427;-66
2021/05/12 09:54:19;;;;;;;1060.93;978.78;;;13.20;99.90;;;;;;5050787;28;20455;-66
2021/05/12 09:56:51;;;;;;;1045.18;964.08;;;13.40;99.90;;;;;;5050991;28;20490;-66
2021/05/12 09:59:20;;;;;;;1026.38;946.17;;;13.40;99.90;;;;;;5050438;28;20402;-66
2021/05/12 10:01:52;;;;;;;1009.95;929.85;;;13.40;99.90;;;;;;5051213;28;20496;-67
2021/05/12 10:04:37;;;;;;;1038.60;955.90;;;13.40;99.90;;;;;;5050833;28;20433;-67
2021/05/12 10:07:17;;;;;;;1033.35;951.47;;;13.30;99.90;;;;;;5051909;28;20474;-69
2021/05/12 10:09:48;;;;;;;1038.80;957.40;;;13.40;99.90;;;;;;5051831;28;20409;-67
2021/05/12 10:12:18;;;;;;;1054.93;971.92;;;13.60;99.90;;;;;;5051940;28;20405;-66
2021/05/12 10:14:48;;;;;;;1043.28;960.35;;;13.70;99.90;;;;;;5050766;28;20417;-66
2021/05/12 10:17:18;;;;;;;1047.28;964.78;;;13.70;99.90;;;;;;5051116;28;20520;-65
2021/05/12 10:19:50;;;;;;;1102.47;999.90;;;13.90;99.90;;;;;;5052636;28;20535;-67
2021/05/12 10:22:20;;;;;;;1066.95;982.97;;;14.20;99.90;;;;;;5050614;28;20448;-67
2021/05/12 10:24:52;;;;;;;1101.03;999.90;;;14.30;99.90;;;;;;5052122;28;20409;-67
2021/05/12 10:27:49;;;;;;;1080.70;994.65;;;14.40;99.90;;;;;;5051901;28;20410;-67
2021/05/12 10:30:18;;;;;;;1095.75;999.90;;;14.40;99.90;;;;;;5051059;28;20415;-67
2021/05/12 10:32:51;;;;;;;1075.88;991.13;;;14.40;99.90;;;;;;5050550;28;20774;-67
2021/05/12 10:35:19;;;;;;;1069.95;987.50;;;14.20;99.90;;;;;;5051987;28;20428;-67
2021/05/12 10:37:48;;;;;;;1060.80;978.50;;;14.20;99.90;;;;;;5051849;28;20448;-66
2021/05/12 10:40:19;;;;;;;1070.65;987.95;;;14.20;99.90;;;;;;5050602;28;20413;-66
2021/05/12 10:42:52;;;;;;;1047.20;965.28;;;14.00;99.90;;;;;;5051937;28;20511;-67
2021/05/12 10:45:55;;;;;;;1060.47;977.28;;;13.90;99.90;;;;;;5051635;28;20408;-66
2021/05/12 10:48:38;;;;;;;1061.40;978.00;;;14.00;99.90;;;;;;5050855;28;20519;-67
2021/05/12 10:51:33;;;;;;;1057.23;974.83;;;14.20;99.90;;;;;;5050882;28;21090;-67
2021/05/12 10:54:09;;;;;;;1048.45;966.45;;;14.00;99.90;;;;;;5051763;28;20421;-68
2021/05/12 10:56:38;;;;;;;1045.65;963.75;;;14.00;99.90;;;;;;5052615;28;20457;-69
2021/05/12 10:59:08;;;;;;;1049.43;966.53;;;13.90;99.90;;;;;;5052327;28;20440;-67
2021/05/12 11:01:53;;;;;;;1073.53;990.67;;;13.90;99.90;;;;;;5051076;28;20492;-67
2021/05/12 11:05:00;;;;;;;1046.82;965.15;;;13.90;99.90;;;;;;5051993;28;20796;-66
2021/05/12 11:07:34;;;;;;;1046.20;964.97;;;13.90;99.90;;;;;;5069335;28;20411;-67
2021/05/12 11:10:03;;;;;;;1065.07;982.63;;;13.80;99.90;;;;;;5074006;28;20407;-66
2021/05/12 11:12:36;;;;;;;1050.05;968.78;;;13.80;99.90;;;;;;5058115;28;20422;-69
2021/05/12 11:15:07;;;;;;;1076.55;993.65;;;13.70;99.90;;;;;;5076206;28;20409;-67
2021/05/12 11:17:49;;;;;;;1067.82;985.83;;;13.70;99.90;;;;;;5057661;28;20427;-67
2021/05/12 11:20:24;;;;;;;1044.72;962.95;;;13.80;99.90;;;;;;5058467;28;20403;-66
2021/05/12 11:22:55;;;;;;;1052.55;970.45;;;13.70;99.90;;;;;;5075591;28;20408;-67
2021/05/12 11:25:31;;;;;;;1079.28;996.78;;;14.00;99.90;;;;;;5058098;28;20395;-67
2021/05/12 11:34:21;;;;;;;1062.45;980.35;;;14.20;99.90;;;;;;5057688;28;20498;-67
2021/05/12 11:39:58;;;;;;;1099.35;999.90;;;14.00;99.90;;;;;;5076120;28;20790;-67
2021/05/12 11:42:30;;;;;;;1073.72;991.33;;;13.90;99.90;;;;;;5075647;28;20494;-67
2021/05/12 11:45:07;;;;;;;1047.60;966.67;;;13.80;99.90;;;;;;5075847;28;20407;-67
2021/05/12 11:47:39;;;;;;;1047.25;966.40;;;13.90;99.90;;;;;;5057029;28;20408;-67
2021/05/12 11:50:19;;;;;;;1066.20;984.20;;;13.90;99.90;;;;;;5057672;28;20490;-67
2021/05/12 11:52:48;;;;;;;1064.85;982.97;;;14.00;99.90;;;;;;5076159;28;20442;-67
2021/05/12 11:55:19;;;;;;;1067.67;985.67;;;14.00;99.90;;;;;;5076325;28;20743;-66
2021/05/12 11:57:49;;;;;;;1083.65;999.90;;;14.30;99.90;;;;;;5076211;28;20438;-66
2021/05/12 12:00:29;;;;;;;1065.07;983.67;;;14.40;99.90;;;;;;5074777;28;20408;-67
2021/05/12 12:02:58;;;;;;;1095.80;999.90;;;14.60;99.90;;;;;;5075855;28;20407;-67
2021/05/12 12:05:36;;;;;;;12.63;11.00;;;14.60;99.90;;;;;;5077272;28;20145;-67
2021/05/12 12:08:12;;;;;;;15.60;11.57;;;14.70;99.90;;;;;;5057368;28;20469;-67
2021/05/12 12:10:40;;;;;;;16.60;11.57;;;14.50;99.90;;;;;;5039464;28;20457;-68
2021/05/12 12:13:12;;;;;;;15.83;12.17;;;14.60;99.90;;;;;;5056715;28;20510;-67
2021/05/12 12:15:40;;;;;;;18.07;13.13;;;14.70;99.90;;;;;;5055252;28;20493;-66
2021/05/12 12:18:08;;;;;;;16.80;12.70;;;14.80;99.90;;;;;;5038850;28;20526;-66
2021/05/12 12:20:36;;;;;;;17.87;13.57;;;14.80;99.90;;;;;;5056057;28;20945;-66
2021/05/12 12:23:06;;;;;;;16.63;12.93;;;14.60;99.90;;;;;;5037283;28;20951;-66
2021/05/12 12:25:40;;;;;;;21.30;12.93;;;14.40;99.90;;;;;;5055679;28;20471;-66
2021/05/12 12:28:33;;;;;;;18.50;12.70;;;14.10;99.90;;;;;;5055848;28;20517;-66
2021/05/12 12:31:00;;;;;;;16.30;12.37;;;13.70;99.90;;;;;;5036809;28;20641;-66
2021/05/12 12:33:28;;;;;;;23.20;13.93;;;13.80;99.90;;;;;;5038089;28;20524;-66
2021/05/12 12:36:05;;;;;;;14.47;11.97;;;14.00;99.90;;;;;;5055693;28;20465;-68
2021/05/12 12:38:34;;;;;;;18.10;14.10;;;13.90;99.90;;;;;;5037576;28;20468;-66
2021/05/12 12:41:03;;;;;;;19.33;15.43;;;14.00;99.90;;;;;;5055693;28;20438;-66
2021/05/12 12:43:39;;;;;;;18.93;14.40;;;14.10;99.90;;;;;;5055731;28;20431;-66
2021/05/12 12:46:07;;;;;;;19.70;14.20;;;14.10;99.90;;;;;;5054822;28;20875;-66
2021/05/12 12:48:36;;;;;;;16.67;12.70;;;14.00;99.90;;;;;;5055590;28;20437;-66
2021/05/12 12:51:05;;;;;;;16.63;13.03;;;13.90;99.90;;;;;;5055371;28;20435;-66
2021/05/12 12:53:35;;;;;;;17.80;11.90;;;14.00;99.90;;;;;;5055507;28;20476;-66
2021/05/12 12:56:09;;;;;;;16.70;11.37;;;13.90;99.90;;;;;;5055808;28;20422;-66
2021/05/12 12:58:38;;;;;;;14.50;12.03;;;14.10;99.90;;;;;;5021176;28;20472;-66
2021/05/12 13:01:07;;;;;;;15.23;10.77;;;14.30;99.90;;;;;;5036922;28;20569;-66
2021/05/12 13:03:35;;;;;;;14.30;11.83;;;14.40;99.90;;;;;;5055076;28;20532;-70